createdAt,value
2022-11-13T00:04:45.270Z,101592
2022-11-13T00:16:41.895Z,101590
2022-11-13T00:23:14.438Z,101584
2022-11-13T00:35:51.705Z,101570
2022-11-13T00:42:04.786Z,101563
2022-11-13T00:48:09.223Z,101554
2022-11-13T00:54:12.719Z,101546
2022-11-13T01:00:04.727Z,101545
2022-11-13T01:05:59.596Z,101546
2022-11-13T01:11:55.673Z,101539
2022-11-13T01:18:01.015Z,101540
2022-11-13T01:24:02.095Z,101541
2022-11-13T01:29:58.598Z,101527
2022-11-13T01:35:59.187Z,101529
2022-11-13T01:41:53.231Z,101526
2022-11-13T01:47:49.294Z,101525
2022-11-13T01:53:46.475Z,101514
2022-11-13T01:59:38.323Z,101498
2022-11-13T02:05:36.109Z,101499
2022-11-13T02:11:31.920Z,101494
2022-11-13T02:17:28.787Z,101489
2022-11-13T02:35:48.758Z,101473
2022-11-13T02:41:46.781Z,101467
2022-11-13T02:47:38.589Z,101462
2022-11-13T02:53:35.244Z,101457
2022-11-13T02:59:31.705Z,101450
2022-11-13T03:05:24.088Z,101445
2022-11-13T03:11:15.343Z,101439
2022-11-13T03:17:16.767Z,101439
2022-11-13T03:23:08.781Z,101443
2022-11-13T03:29:10.249Z,101447
2022-11-13T03:35:08.994Z,101444
2022-11-13T03:40:58.475Z,101440
2022-11-13T03:46:49.185Z,101452
2022-11-13T03:52:42.527Z,101450
2022-11-13T04:04:40.589Z,101443
2022-11-13T04:10:35.034Z,101433
2022-11-13T04:16:27.829Z,101434
2022-11-13T04:22:18.654Z,101438
2022-11-13T04:28:11.509Z,101430
2022-11-13T04:34:03.475Z,101421
2022-11-13T04:40:01.108Z,101417
2022-11-13T04:45:53.723Z,101416
2022-11-13T04:51:48.438Z,101396
2022-11-13T04:57:41.199Z,101396
2022-11-13T05:03:35.579Z,101390
2022-11-13T05:09:30.383Z,101389
2022-11-13T05:15:25.942Z,101388
2022-11-13T05:21:30.931Z,101380
2022-11-13T05:33:32.990Z,101377
2022-11-13T05:39:25.754Z,101371
2022-11-13T05:45:42.349Z,101365
2022-11-13T05:51:33.591Z,101355
2022-11-13T05:57:33.904Z,101352
2022-11-13T06:03:26.861Z,101342
2022-11-13T06:10:30.487Z,101325
2022-11-13T06:16:22.797Z,101320
2022-11-13T06:22:36.785Z,101309
2022-11-13T06:28:27.595Z,101308
2022-11-13T06:34:39.157Z,101304
2022-11-13T06:40:29.138Z,101311
2022-11-13T06:46:19.676Z,101314
2022-11-13T06:52:13.360Z,101305
2022-11-13T06:58:03.244Z,101301
2022-11-13T07:04:08.261Z,101296
2022-11-13T07:09:57.764Z,101297
2022-11-13T07:15:51.237Z,101297
2022-11-13T12:39:35.835Z,100933
2022-11-13T12:45:54.697Z,100935
2022-11-13T12:51:59.887Z,100933
2022-11-13T13:04:52.038Z,100919
2022-11-13T13:10:50.655Z,100909
2022-11-13T13:16:44.298Z,100899
2022-11-13T13:22:35.224Z,100895
2022-11-13T13:41:38.603Z,100850
2022-11-13T13:48:17.181Z,100843
2022-11-13T14:00:17.114Z,100825
2022-11-13T14:06:55.539Z,100813
2022-11-13T14:13:10.560Z,100825
2022-11-13T14:19:02.265Z,100825
2022-11-13T14:24:53.329Z,100822
2022-11-13T14:30:44.003Z,100815
2022-11-13T14:36:33.881Z,100822
2022-11-13T14:42:25.125Z,100824
2022-11-13T14:48:15.492Z,100808
2022-11-13T14:54:11.721Z,100806
2022-11-13T15:00:01.667Z,100800
2022-11-13T15:05:52.826Z,100795
2022-11-13T15:11:43.440Z,100790
2022-11-13T15:17:33.932Z,100777
2022-11-13T15:23:24.335Z,100769
2022-11-13T15:29:16.415Z,100760
2022-11-13T15:35:07.362Z,100768
2022-11-13T15:40:57.678Z,100758
2022-11-13T15:46:47.477Z,100745
2022-11-13T15:52:37.989Z,100756
2022-11-13T15:58:34.345Z,100736
2022-11-13T16:04:43.966Z,100730
2022-11-13T16:10:44.126Z,100735
2022-11-13T16:16:34.169Z,100723
2022-11-13T16:22:25.188Z,100720
2022-11-13T16:28:15.394Z,100719
2022-11-13T16:34:06.012Z,100730
2022-11-13T16:39:58.603Z,100734
2022-11-13T16:45:49.482Z,100742
2022-11-13T16:51:40.449Z,100732
2022-11-13T16:57:30.731Z,100721
2022-11-13T17:03:20.523Z,100721
2022-11-13T17:09:10.575Z,100715
2022-11-13T17:15:01.177Z,100723
2022-11-13T17:20:52.501Z,100714
2022-11-13T17:26:42.880Z,100708
2022-11-13T17:32:33.130Z,100716
2022-11-13T17:38:23.556Z,100716
2022-11-13T17:44:13.400Z,100714
2022-11-13T17:50:10.436Z,100712
2022-11-13T17:56:00.275Z,100710
2022-11-13T18:01:53.355Z,100707
2022-11-13T18:07:43.400Z,100705
2022-11-13T18:13:35.531Z,100697
2022-11-13T18:19:27.227Z,100697
2022-11-13T18:25:18.264Z,100693
2022-11-13T18:31:07.867Z,100690
2022-11-13T18:36:58.133Z,100694
2022-11-13T18:42:49.079Z,100689
2022-11-13T18:48:39.264Z,100689
2022-11-13T18:54:29.413Z,100687
2022-11-13T19:00:20.000Z,100679
2022-11-13T19:06:08.790Z,100674
2022-11-13T19:11:59.536Z,100652
2022-11-13T19:17:56.267Z,100646
2022-11-13T19:23:46.195Z,100647
2022-11-13T19:29:37.136Z,100646
2022-11-13T19:35:27.492Z,100640
2022-11-13T19:41:18.995Z,100637
2022-11-13T19:47:09.918Z,100632
2022-11-13T19:53:01.263Z,100626
2022-11-13T19:58:52.450Z,100620
2022-11-13T20:04:42.333Z,100613
2022-11-13T20:10:33.676Z,100614
2022-11-13T20:16:24.892Z,100609
2022-11-13T20:22:14.712Z,100607
2022-11-13T20:28:05.317Z,100604
2022-11-13T20:33:55.432Z,100605
2022-11-13T20:39:46.646Z,100611
2022-11-13T20:45:37.363Z,100602
2022-11-13T20:51:28.401Z,100604
2022-11-13T20:57:19.212Z,100601
2022-11-13T21:03:15.947Z,100599
2022-11-13T21:09:06.279Z,100589
2022-11-13T21:14:56.579Z,100580
2022-11-13T21:20:47.164Z,100574
2022-11-13T21:26:37.015Z,100573
2022-11-13T21:32:27.604Z,100571
2022-11-13T21:38:18.516Z,100559
2022-11-13T21:44:09.210Z,100553
2022-11-13T21:50:01.401Z,100547
2022-11-13T21:55:52.248Z,100539
2022-11-13T22:01:44.068Z,100529
2022-11-13T22:07:35.496Z,100524
2022-11-13T22:13:27.844Z,100522
2022-11-13T22:19:21.355Z,100520
2022-11-13T22:25:23.838Z,100528
2022-11-13T22:31:14.655Z,100521
2022-11-13T22:37:05.552Z,100514
2022-11-13T22:43:01.897Z,100504
2022-11-13T22:48:55.132Z,100497
2022-11-13T22:54:46.292Z,100490
2022-11-13T23:00:37.356Z,100487
2022-11-13T23:06:28.127Z,100480
2022-11-13T23:12:19.714Z,100474
2022-11-13T23:18:13.920Z,100473
2022-11-13T23:24:04.242Z,100474
2022-11-13T23:29:57.582Z,100464
2022-11-13T23:35:48.062Z,100464
2022-11-13T23:41:39.193Z,100454
2022-11-13T23:47:30.590Z,100455
2022-11-13T23:53:20.700Z,100446
2022-11-13T23:59:11.671Z,100441
